createdAt,value
2018-09-30T00:01:47.862Z,1017.45
2018-09-30T00:02:48.334Z,1017.46
2018-09-30T00:04:42.304Z,1017.42
2018-09-30T00:05:41.791Z,1017.41
2018-09-30T00:07:37.714Z,1017.40
2018-09-30T00:08:37.719Z,1017.41
2018-09-30T00:10:31.168Z,1017.38
2018-09-30T00:11:31.154Z,1017.39
2018-09-30T00:13:25.616Z,1017.31
2018-09-30T00:14:26.104Z,1017.31
2018-09-30T00:16:20.039Z,1017.31
2018-09-30T00:17:20.012Z,1017.31
2018-09-30T00:19:14.959Z,1017.31
2018-09-30T00:20:14.443Z,1017.28
2018-09-30T00:22:09.399Z,1017.26
2018-09-30T00:23:07.880Z,1017.23
2018-09-30T00:25:02.825Z,1017.23
2018-09-30T00:26:02.816Z,1017.22
2018-09-30T00:27:55.700Z,1017.22
2018-09-30T00:28:56.218Z,1017.19
2018-09-30T00:30:51.628Z,1017.15
2018-09-30T00:31:51.623Z,1017.12
2018-09-30T00:33:45.573Z,1017.16
2018-09-30T00:34:45.040Z,1017.13
2018-09-30T00:36:40.493Z,1017.10
2018-09-30T00:37:39.996Z,1017.10
2018-09-30T00:39:33.897Z,1017.07
2018-09-30T00:40:33.901Z,1017.05
2018-09-30T00:42:29.345Z,1017.04
2018-09-30T00:43:28.331Z,1017.05
2018-09-30T00:45:23.710Z,1016.99
2018-09-30T00:46:22.728Z,1016.95
2018-09-30T00:48:19.686Z,1016.93
2018-09-30T00:49:17.167Z,1016.90
2018-09-30T00:51:13.109Z,1016.87
2018-09-30T00:52:12.119Z,1016.83
2018-09-30T00:54:07.965Z,1016.84
2018-09-30T00:55:06.544Z,1016.83
2018-09-30T00:56:59.955Z,1016.88
2018-09-30T00:57:59.424Z,1016.83
2018-09-30T00:59:53.842Z,1016.79
2018-09-30T01:00:54.381Z,1016.77
2018-09-30T01:02:48.291Z,1016.72
2018-09-30T01:03:48.254Z,1016.73
2018-09-30T01:05:43.199Z,1016.74
2018-09-30T01:06:42.671Z,1016.77
2018-09-30T01:08:37.107Z,1016.69
2018-09-30T01:09:37.101Z,1016.73
2018-09-30T01:11:32.054Z,1016.68
2018-09-30T01:12:31.043Z,1016.64
2018-09-30T01:14:26.484Z,1016.58
2018-09-30T01:15:26.968Z,1016.56
2018-09-30T01:17:19.867Z,1016.57
2018-09-30T01:18:19.862Z,1016.56
2018-09-30T01:20:14.314Z,1016.57
2018-09-30T01:21:14.822Z,1016.58
2018-09-30T01:23:09.731Z,1016.50
2018-09-30T01:24:08.725Z,1016.53
2018-09-30T01:26:04.664Z,1016.45
2018-09-30T01:27:05.164Z,1016.41
2018-09-30T01:28:59.114Z,1016.36
2018-09-30T01:29:59.594Z,1016.33
2018-09-30T01:31:53.530Z,1016.35
2018-09-30T01:32:53.489Z,1016.33
2018-09-30T01:34:47.905Z,1016.33
2018-09-30T01:35:47.909Z,1016.30
2018-09-30T01:37:42.323Z,1016.24
2018-09-30T01:38:42.849Z,1016.22
2018-09-30T01:40:36.768Z,1016.22
2018-09-30T01:41:37.269Z,1016.24
2018-09-30T01:43:31.172Z,1016.22
2018-09-30T01:44:31.185Z,1016.22
2018-09-30T01:46:26.114Z,1016.23
2018-09-30T01:47:25.593Z,1016.24
2018-09-30T01:49:19.065Z,1016.20
2018-09-30T01:50:19.529Z,1016.19
2018-09-30T01:52:13.494Z,1016.20
2018-09-30T01:53:13.979Z,1016.19
2018-09-30T01:55:09.394Z,1016.20
2018-09-30T01:56:08.387Z,1016.19
2018-09-30T01:58:01.268Z,1016.13
2018-09-30T01:59:01.277Z,1016.10
2018-09-30T02:00:55.687Z,1016.10
2018-09-30T02:01:55.677Z,1016.10
2018-09-30T02:03:50.116Z,1016.09
2018-09-30T02:04:50.104Z,1016.09
2018-09-30T02:06:46.056Z,1016.03
2018-09-30T02:07:45.053Z,1016.01
2018-09-30T02:09:38.964Z,1015.93
2018-09-30T02:10:38.958Z,1015.97
2018-09-30T02:12:33.394Z,1015.94
2018-09-30T02:13:33.917Z,1015.94
2018-09-30T02:15:27.794Z,1015.97
2018-09-30T02:16:27.790Z,1015.94
2018-09-30T02:18:22.715Z,1016.00
2018-09-30T02:19:22.215Z,1015.97
2018-09-30T02:21:19.161Z,1015.94
2018-09-30T02:22:16.645Z,1015.94
2018-09-30T02:24:11.070Z,1015.91
2018-09-30T02:25:11.075Z,1015.87
2018-09-30T02:27:05.527Z,1015.89
2018-09-30T02:28:05.485Z,1015.84
2018-09-30T02:30:00.419Z,1015.83
2018-09-30T02:30:59.897Z,1015.87
2018-09-30T02:32:54.850Z,1015.87
2018-09-30T02:33:54.340Z,1015.87
2018-09-30T02:35:49.289Z,1015.85
2018-09-30T02:36:48.733Z,1015.85
2018-09-30T02:38:43.194Z,1015.88
2018-09-30T02:39:43.155Z,1015.88
2018-09-30T02:41:38.124Z,1015.86
2018-09-30T02:42:37.595Z,1015.89
2018-09-30T02:44:32.054Z,1015.82
2018-09-30T02:45:32.529Z,1015.85
2018-09-30T02:47:28.489Z,1015.87
2018-09-30T02:48:27.954Z,1015.86
2018-09-30T02:50:21.910Z,1015.81
2018-09-30T02:51:21.390Z,1015.83
2018-09-30T02:53:17.293Z,1015.81
2018-09-30T02:54:17.314Z,1015.81
2018-09-30T02:56:14.246Z,1015.75
2018-09-30T02:57:13.213Z,1015.69
2018-09-30T02:59:07.634Z,1015.69
2018-09-30T03:00:08.166Z,1015.64
2018-09-30T03:02:02.099Z,1015.66
2018-09-30T03:03:02.069Z,1015.67
2018-09-30T03:04:55.473Z,1015.61
2018-09-30T03:05:56.026Z,1015.60
2018-09-30T03:07:50.463Z,1015.56
2018-09-30T03:08:49.925Z,1015.60
2018-09-30T03:10:44.352Z,1015.54
2018-09-30T03:11:44.341Z,1015.52
2018-09-30T03:13:38.805Z,1015.49
2018-09-30T03:14:39.292Z,1015.46
2018-09-30T03:16:33.232Z,1015.51
2018-09-30T03:17:33.187Z,1015.49
2018-09-30T03:19:28.638Z,1015.48
2018-09-30T03:20:28.136Z,1015.41
2018-09-30T03:22:21.034Z,1015.32
2018-09-30T03:23:21.028Z,1015.30
2018-09-30T03:25:15.994Z,1015.29
2018-09-30T03:26:15.973Z,1015.27
2018-09-30T03:28:09.869Z,1015.27
2018-09-30T03:29:09.843Z,1015.27
2018-09-30T03:31:04.808Z,1015.26
2018-09-30T03:32:04.264Z,1015.21
2018-09-30T03:33:58.704Z,1015.20
2018-09-30T03:34:58.697Z,1015.14
2018-09-30T03:36:53.145Z,1015.13
2018-09-30T03:37:53.122Z,1015.16
2018-09-30T03:39:47.534Z,1015.17
2018-09-30T03:40:47.527Z,1015.18
2018-09-30T03:42:42.023Z,1015.15
2018-09-30T03:43:41.958Z,1015.13
2018-09-30T03:45:36.362Z,1015.08
2018-09-30T03:46:36.374Z,1015.11
2018-09-30T03:48:30.847Z,1015.14
2018-09-30T03:49:30.802Z,1015.15
2018-09-30T03:51:25.247Z,1015.16
2018-09-30T03:52:25.233Z,1015.19
2018-09-30T03:54:19.672Z,1015.18
2018-09-30T03:55:19.658Z,1015.20
2018-09-30T03:57:15.554Z,1015.18
2018-09-30T03:58:16.099Z,1015.13
2018-09-30T04:00:09.038Z,1015.13
2018-09-30T04:01:08.980Z,1015.12
2018-09-30T04:03:04.428Z,1015.02
2018-09-30T04:04:03.931Z,1015.04
2018-09-30T04:05:56.829Z,1014.97
2018-09-30T04:06:56.836Z,1014.97
2018-09-30T04:08:51.248Z,1014.87
2018-09-30T04:09:51.817Z,1014.87
2018-09-30T04:11:46.190Z,1014.83
2018-09-30T04:12:46.626Z,1014.81
2018-09-30T04:14:39.094Z,1014.78
2018-09-30T04:15:39.104Z,1014.78
2018-09-30T04:17:35.152Z,1014.77
2018-09-30T04:18:35.028Z,1014.76
2018-09-30T04:20:30.892Z,1014.74
2018-09-30T04:21:29.442Z,1014.74
2018-09-30T04:23:23.861Z,1014.71
2018-09-30T04:24:23.855Z,1014.70
2018-09-30T04:26:18.293Z,1014.72
2018-09-30T04:27:18.285Z,1014.78
2018-09-30T04:29:12.746Z,1014.75
2018-09-30T04:30:12.708Z,1014.71
2018-09-30T04:32:06.134Z,1014.69
2018-09-30T04:33:06.135Z,1014.69
2018-09-30T04:35:01.077Z,1014.70
2018-09-30T04:36:02.074Z,1014.68
2018-09-30T04:37:54.944Z,1014.69
2018-09-30T04:38:54.959Z,1014.68
2018-09-30T04:40:50.880Z,1014.69
2018-09-30T04:41:50.865Z,1014.72
2018-09-30T04:43:45.314Z,1014.71
2018-09-30T04:44:45.305Z,1014.68
2018-09-30T04:46:40.234Z,1014.70
2018-09-30T04:47:39.715Z,1014.68
2018-09-30T04:49:34.151Z,1014.64
2018-09-30T04:50:34.143Z,1014.68
2018-09-30T04:52:27.598Z,1014.68
2018-09-30T04:53:27.564Z,1014.69
2018-09-30T04:55:22.035Z,1014.68
2018-09-30T04:56:22.938Z,1014.67
2018-09-30T04:58:15.435Z,1014.64
2018-09-30T04:59:15.400Z,1014.64
2018-09-30T05:01:10.339Z,1014.66
2018-09-30T05:02:09.819Z,1014.64
2018-09-30T05:04:05.200Z,1014.64
2018-09-30T05:05:04.276Z,1014.61
2018-09-30T05:06:57.714Z,1014.60
2018-09-30T05:07:58.219Z,1014.64
2018-09-30T05:09:52.126Z,1014.57
2018-09-30T05:10:52.115Z,1014.55
2018-09-30T05:12:46.538Z,1014.51
2018-09-30T05:13:47.060Z,1014.51
2018-09-30T05:15:41.000Z,1014.48
2018-09-30T05:16:40.918Z,1014.48
2018-09-30T05:18:35.393Z,1014.52
2018-09-30T05:19:35.888Z,1014.53
2018-09-30T05:21:30.293Z,1014.58
2018-09-30T05:22:29.774Z,1014.56
2018-09-30T05:24:24.190Z,1014.58
2018-09-30T05:25:24.181Z,1014.58
2018-09-30T05:27:18.677Z,1014.59
2018-09-30T05:28:18.617Z,1014.56
2018-09-30T05:30:13.071Z,1014.59
2018-09-30T05:31:13.102Z,1014.57
2018-09-30T05:33:06.478Z,1014.58
2018-09-30T05:34:06.985Z,1014.57
2018-09-30T05:36:02.903Z,1014.58
2018-09-30T05:37:02.402Z,1014.57
2018-09-30T05:38:57.331Z,1014.54
2018-09-30T05:39:56.796Z,1014.53
2018-09-30T05:41:51.227Z,1014.53
2018-09-30T05:42:51.218Z,1014.46
2018-09-30T05:44:45.631Z,1014.46
2018-09-30T05:45:45.623Z,1014.44
2018-09-30T05:47:40.589Z,1014.45
2018-09-30T05:48:40.083Z,1014.45
2018-09-30T05:50:33.498Z,1014.43
2018-09-30T05:51:33.505Z,1014.42
2018-09-30T05:53:27.975Z,1014.42
2018-09-30T05:54:27.935Z,1014.37
2018-09-30T05:56:22.333Z,1014.35
2018-09-30T05:57:22.396Z,1014.31
2018-09-30T05:59:19.292Z,1014.32
2018-09-30T06:00:18.283Z,1014.35
2018-09-30T06:02:12.780Z,1014.41
2018-09-30T06:03:12.704Z,1014.39
2018-09-30T06:05:07.231Z,1014.35
2018-09-30T06:08:01.655Z,1014.41
2018-09-30T06:09:01.737Z,1014.43
2018-09-30T06:11:19.624Z,1014.47
2018-09-30T06:12:22.114Z,1014.46
2018-09-30T06:14:18.491Z,1014.50
2018-09-30T06:15:18.826Z,1014.56
2018-09-30T06:17:12.309Z,1014.54
2018-09-30T06:18:12.322Z,1014.51
2018-09-30T06:20:05.747Z,1014.53
2018-09-30T06:21:05.729Z,1014.52
2018-09-30T06:22:59.160Z,1014.55
2018-09-30T06:23:59.167Z,1014.59
2018-09-30T06:25:54.088Z,1014.59
2018-09-30T06:26:54.960Z,1014.57
2018-09-30T06:28:53.293Z,1014.60
2018-09-30T06:29:47.989Z,1014.62
2018-09-30T06:31:42.615Z,1014.66
2018-09-30T06:32:42.456Z,1014.62
2018-09-30T06:34:39.852Z,1014.66
2018-09-30T06:35:38.896Z,1014.68
2018-09-30T06:37:34.811Z,1014.64
2018-09-30T06:38:34.833Z,1014.59
2018-09-30T06:40:28.798Z,1014.61
2018-09-30T06:41:28.721Z,1014.61
2018-09-30T06:43:23.188Z,1014.58
2018-09-30T06:44:23.142Z,1014.60
2018-09-30T06:46:16.574Z,1014.59
2018-09-30T06:47:16.557Z,1014.64
2018-09-30T06:49:13.512Z,1014.61
2018-09-30T06:50:10.987Z,1014.62
2018-09-30T06:52:06.899Z,1014.59
2018-09-30T06:53:06.925Z,1014.61
2018-09-30T06:55:00.870Z,1014.60
2018-09-30T06:56:02.438Z,1014.62
2018-09-30T06:57:54.721Z,1014.63
2018-09-30T06:58:55.253Z,1014.61
2018-09-30T07:00:49.192Z,1014.63
2018-09-30T07:01:49.674Z,1014.63
2018-09-30T07:03:47.038Z,1014.59
2018-09-30T07:04:44.476Z,1014.59
2018-09-30T07:06:38.869Z,1014.58
2018-09-30T07:07:38.842Z,1014.61
2018-09-30T07:09:33.293Z,1014.57
2018-09-30T07:10:33.249Z,1014.59
2018-09-30T07:12:27.665Z,1014.57
2018-09-30T07:13:27.674Z,1014.60
2018-09-30T07:15:21.625Z,1014.57
2018-09-30T07:16:22.543Z,1014.62
2018-09-30T07:18:14.546Z,1014.63
2018-09-30T07:19:14.604Z,1014.64
2018-09-30T07:24:08.828Z,1014.70
2018-09-30T07:25:08.829Z,1014.72
2018-09-30T07:27:02.264Z,1014.67
2018-09-30T07:28:04.788Z,1014.69
2018-09-30T07:30:08.291Z,1014.72
2018-09-30T07:31:01.106Z,1014.71
2018-09-30T07:32:54.216Z,1014.67
2018-09-30T07:33:53.833Z,1014.67
2018-09-30T07:35:49.796Z,1014.71
2018-09-30T07:36:49.654Z,1014.69
2018-09-30T07:38:45.606Z,1014.69
2018-09-30T07:39:45.039Z,1014.69
2018-09-30T07:41:37.602Z,1014.71
2018-09-30T07:42:38.468Z,1014.71
2018-09-30T07:44:33.992Z,1014.70
2018-09-30T07:45:32.040Z,1014.69
2018-09-30T07:47:28.021Z,1014.64
2018-09-30T07:48:28.558Z,1014.64
2018-09-30T07:50:22.329Z,1014.67
2018-09-30T07:51:21.435Z,1014.61
2018-09-30T07:53:14.866Z,1014.55
2018-09-30T07:54:14.843Z,1014.55
2018-09-30T07:56:09.320Z,1014.51
2018-09-30T07:57:09.288Z,1014.45
2018-09-30T07:59:02.766Z,1014.47
2018-09-30T08:02:09.329Z,1014.35
2018-09-30T08:04:31.322Z,1014.33
2018-09-30T08:06:51.183Z,1014.37
2018-09-30T08:07:51.281Z,1014.36
2018-09-30T08:09:45.692Z,1014.41
2018-09-30T08:10:45.683Z,1014.38
2018-09-30T08:12:38.429Z,1014.37
2018-09-30T08:13:38.275Z,1014.35
2018-09-30T08:15:35.673Z,1014.33
2018-09-30T08:16:35.239Z,1014.32
2018-09-30T08:18:31.559Z,1014.34
2018-09-30T08:19:31.014Z,1014.37
2018-09-30T08:21:29.393Z,1014.37
2018-09-30T08:22:29.264Z,1014.32
2018-09-30T08:24:36.380Z,1014.36
2018-09-30T08:25:36.295Z,1014.40
2018-09-30T08:27:32.305Z,1014.43
2018-09-30T08:28:32.291Z,1014.41
2018-09-30T08:30:29.253Z,1014.42
2018-09-30T08:31:28.283Z,1014.39
2018-09-30T08:33:22.820Z,1014.38
2018-09-30T08:34:22.784Z,1014.40
2018-09-30T08:36:16.279Z,1014.37
2018-09-30T08:37:16.311Z,1014.35
2018-09-30T08:39:20.740Z,1014.31
2018-09-30T08:40:10.657Z,1014.28
2018-09-30T08:42:06.705Z,1014.34
2018-09-30T08:43:06.603Z,1014.30
2018-09-30T08:44:59.988Z,1014.31
2018-09-30T08:46:00.571Z,1014.32
2018-09-30T08:47:57.538Z,1014.32
2018-09-30T08:48:55.518Z,1014.32
2018-09-30T08:50:51.465Z,1014.36
2018-09-30T08:51:51.526Z,1014.35
2018-09-30T08:53:45.993Z,1014.32
2018-09-30T08:54:45.940Z,1014.33
2018-09-30T08:56:39.386Z,1014.27
2018-09-30T08:57:39.389Z,1014.30
2018-09-30T08:59:38.466Z,1014.27
2018-09-30T09:00:39.252Z,1014.23
2018-09-30T09:02:35.005Z,1014.27
2018-09-30T09:03:34.289Z,1014.27
2018-09-30T09:05:27.742Z,1014.24
2018-09-30T09:06:27.771Z,1014.21
2018-09-30T09:08:24.718Z,1014.26
2018-09-30T09:09:24.135Z,1014.22
2018-09-30T09:11:19.042Z,1014.26
2018-09-30T09:12:18.425Z,1014.22
2018-09-30T09:14:45.820Z,1014.25
2018-09-30T09:20:56.805Z,1014.12
2018-09-30T09:22:52.209Z,1014.04
2018-09-30T09:23:53.528Z,1014.02
2018-09-30T09:25:50.148Z,1014.05
2018-09-30T09:26:49.182Z,1014.00
2018-09-30T09:28:45.051Z,1014.06
2018-09-30T09:29:45.027Z,1014.06
2018-09-30T09:31:39.476Z,1014.00
2018-09-30T09:32:41.225Z,1014.06
2018-09-30T09:34:45.858Z,1013.98
2018-09-30T09:35:40.242Z,1013.95
2018-09-30T09:37:42.826Z,1013.92
2018-09-30T09:38:36.847Z,1013.92
2018-09-30T09:40:38.604Z,1013.90
2018-09-30T09:41:32.967Z,1013.88
2018-09-30T09:43:50.269Z,1013.78
2018-09-30T09:44:50.328Z,1013.74
2018-09-30T09:46:46.174Z,1013.83
2018-09-30T09:47:46.083Z,1013.83
2018-09-30T09:49:38.225Z,1013.80
2018-09-30T09:50:39.059Z,1013.77
2018-09-30T09:52:32.698Z,1013.76
2018-09-30T09:53:32.703Z,1013.76
2018-09-30T09:55:26.144Z,1013.80
2018-09-30T09:56:26.080Z,1013.76
2018-09-30T09:58:22.091Z,1013.75
2018-09-30T10:00:37.028Z,1013.71
2018-09-30T10:03:07.991Z,1013.65
2018-09-30T10:06:32.682Z,1013.62
2018-09-30T10:09:38.070Z,1013.51
2018-09-30T10:12:17.557Z,1013.52
2018-09-30T10:13:17.743Z,1013.54
2018-09-30T10:15:10.989Z,1013.47
2018-09-30T10:16:10.978Z,1013.47
2018-09-30T10:18:06.968Z,1013.47
2018-09-30T10:19:06.934Z,1013.50
2018-09-30T10:21:01.931Z,1013.46
2018-09-30T10:22:01.469Z,1013.48
2018-09-30T10:23:57.340Z,1013.42
2018-09-30T10:24:57.335Z,1013.46
2018-09-30T10:26:52.784Z,1013.45
2018-09-30T10:27:51.789Z,1013.40
2018-09-30T10:29:45.708Z,1013.40
2018-09-30T10:30:45.729Z,1013.41
2018-09-30T10:32:41.178Z,1013.43
2018-09-30T10:33:41.641Z,1013.39
2018-09-30T10:35:34.546Z,1013.30
2018-09-30T10:36:34.520Z,1013.28
2018-09-30T10:38:29.546Z,1013.22
2018-09-30T10:39:28.981Z,1013.24
2018-09-30T10:41:23.423Z,1013.18
2018-09-30T10:42:23.406Z,1013.21
2018-09-30T10:44:19.874Z,1013.13
2018-09-30T10:45:17.908Z,1013.17
2018-09-30T10:47:12.878Z,1013.17
2018-09-30T10:48:12.336Z,1013.16
2018-09-30T10:50:08.314Z,1013.16
2018-09-30T10:51:09.314Z,1013.14
2018-09-30T10:53:04.253Z,1013.11
2018-09-30T10:54:04.256Z,1013.10
2018-09-30T10:55:58.192Z,1013.08
2018-09-30T10:56:58.291Z,1013.11
2018-09-30T10:58:52.599Z,1013.03
2018-09-30T10:59:52.083Z,1013.02
2018-09-30T11:01:47.041Z,1013.01
2018-09-30T11:02:46.518Z,1013.06
2018-09-30T11:04:40.471Z,1013.03
2018-09-30T11:05:39.956Z,1012.97
2018-09-30T11:07:34.442Z,1012.97
2018-09-30T11:08:35.438Z,1012.96
2018-09-30T11:10:30.433Z,1012.90
2018-09-30T11:11:30.394Z,1012.92
2018-09-30T11:13:24.884Z,1012.90
2018-09-30T11:14:24.865Z,1012.90
2018-09-30T11:16:18.315Z,1012.89
2018-09-30T11:17:18.314Z,1012.86
2018-09-30T11:23:10.197Z,1012.73
2018-09-30T11:24:10.209Z,1012.67
2018-09-30T11:26:05.135Z,1012.62
2018-09-30T11:27:04.618Z,1012.64
2018-09-30T11:29:00.016Z,1012.65
2018-09-30T11:29:58.078Z,1012.63
2018-09-30T11:31:53.094Z,1012.60
2018-09-30T11:32:53.541Z,1012.57
2018-09-30T11:34:47.087Z,1012.58
2018-09-30T11:35:47.089Z,1012.56
2018-09-30T11:37:41.706Z,1012.54
2018-09-30T11:38:41.707Z,1012.55
2018-09-30T11:40:37.673Z,1012.56
2018-09-30T11:41:37.095Z,1012.55
2018-09-30T11:43:30.224Z,1012.50
2018-09-30T11:44:29.688Z,1012.53
2018-09-30T11:46:24.139Z,1012.49
2018-09-30T11:47:24.637Z,1012.44
2018-09-30T11:49:17.646Z,1012.38
2018-09-30T11:50:17.193Z,1012.33
2018-09-30T11:52:10.619Z,1012.27
2018-09-30T11:53:10.722Z,1012.30
2018-09-30T11:55:06.140Z,1012.26
2018-09-30T11:56:05.083Z,1012.23
2018-09-30T11:57:58.555Z,1012.22
2018-09-30T11:58:58.528Z,1012.21
2018-09-30T12:00:52.987Z,1012.15
2018-09-30T12:01:54.400Z,1012.17
2018-09-30T12:03:48.971Z,1012.13
2018-09-30T12:04:48.876Z,1012.11
2018-09-30T12:06:43.376Z,1012.12
2018-09-30T12:07:46.229Z,1012.10
2018-09-30T12:09:36.841Z,1012.06
2018-09-30T12:10:37.724Z,1012.07
2018-09-30T12:12:32.716Z,1012.08
2018-09-30T12:13:32.196Z,1012.10
2018-09-30T12:15:33.008Z,1012.07
2018-09-30T12:16:28.217Z,1012.03
2018-09-30T12:19:12.329Z,1011.99
2018-09-30T12:20:00.617Z,1012.01
2018-09-30T12:22:04.737Z,1011.95
2018-09-30T12:24:40.650Z,1011.88
2018-09-30T12:27:28.628Z,1011.76
2018-09-30T12:27:56.692Z,1011.72
2018-09-30T12:29:50.014Z,1011.73
2018-09-30T12:30:50.520Z,1011.70
2018-09-30T12:32:43.486Z,1011.67
2018-09-30T12:33:43.486Z,1011.70
2018-09-30T12:35:38.436Z,1011.72
2018-09-30T12:36:38.437Z,1011.67
2018-09-30T12:38:32.384Z,1011.71
2018-09-30T12:39:32.383Z,1011.69
2018-09-30T12:41:27.365Z,1011.67
2018-09-30T12:42:26.800Z,1011.65
2018-09-30T12:44:20.759Z,1011.59
2018-09-30T12:45:20.257Z,1011.59
2018-09-30T12:47:14.209Z,1011.57
2018-09-30T12:48:13.680Z,1011.56
2018-09-30T12:50:08.136Z,1011.59
2018-09-30T12:51:08.126Z,1011.57
2018-09-30T12:53:02.570Z,1011.50
2018-09-30T12:54:02.556Z,1011.42
2018-09-30T12:55:57.057Z,1011.42
2018-09-30T12:56:56.398Z,1011.43
2018-09-30T12:58:50.972Z,1011.44
2018-09-30T12:59:50.467Z,1011.45
2018-09-30T13:01:47.426Z,1011.47
2018-09-30T13:02:45.764Z,1011.44
2018-09-30T13:04:40.730Z,1011.41
2018-09-30T13:05:40.239Z,1011.38
2018-09-30T13:07:35.185Z,1011.35
2018-09-30T13:08:34.677Z,1011.31
2018-09-30T13:10:29.138Z,1011.31
2018-09-30T13:11:28.152Z,1011.28
2018-09-30T13:13:23.607Z,1011.26
2018-09-30T13:14:25.316Z,1011.27
2018-09-30T13:16:18.123Z,1011.29
2018-09-30T13:17:17.117Z,1011.30
2018-09-30T13:19:10.574Z,1011.27
2018-09-30T13:20:10.556Z,1011.28
2018-09-30T13:22:06.019Z,1011.25
2018-09-30T13:23:07.030Z,1011.23
2018-09-30T13:25:00.013Z,1011.20
2018-09-30T13:26:00.933Z,1011.17
2018-09-30T13:27:52.975Z,1011.14
2018-09-30T13:28:52.937Z,1011.13
2018-09-30T13:30:48.898Z,1011.17
2018-09-30T13:31:47.902Z,1011.13
2018-09-30T13:33:41.851Z,1011.11
2018-09-30T13:34:40.809Z,1011.09
2018-09-30T13:36:36.273Z,1011.06
2018-09-30T13:37:35.246Z,1011.02
2018-09-30T13:39:29.690Z,1011.03
2018-09-30T13:40:30.264Z,1011.04
2018-09-30T13:42:24.213Z,1011.07
2018-09-30T13:43:25.653Z,1011.09
2018-09-30T13:45:19.102Z,1011.06
2018-09-30T13:46:17.679Z,1011.06
2018-09-30T13:48:12.529Z,1011.03
2018-09-30T13:49:12.036Z,1011.05
2018-09-30T13:51:06.443Z,1011.00
2018-09-30T13:52:05.485Z,1010.98
2018-09-30T13:53:59.913Z,1010.96
2018-09-30T13:54:59.901Z,1010.98
2018-09-30T13:56:53.859Z,1010.93
2018-09-30T13:57:53.359Z,1011.00
2018-09-30T13:59:48.823Z,1010.92
2018-09-30T14:00:47.834Z,1010.94
2018-09-30T14:02:41.298Z,1010.87
2018-09-30T14:03:41.296Z,1010.89
2018-09-30T14:05:35.812Z,1010.85
2018-09-30T14:06:35.804Z,1010.84
2018-09-30T14:08:30.269Z,1010.85
2018-09-30T14:09:30.231Z,1010.85
2018-09-30T14:11:23.694Z,1010.82
2018-09-30T14:12:23.679Z,1010.81
2018-09-30T14:14:18.649Z,1010.80
2018-09-30T14:15:18.123Z,1010.83
2018-09-30T14:17:12.583Z,1010.84
2018-09-30T14:18:12.588Z,1010.83
2018-09-30T14:20:07.032Z,1010.84
2018-09-30T14:21:07.029Z,1010.79
2018-09-30T14:23:01.415Z,1010.79
2018-09-30T14:24:01.424Z,1010.79
2018-09-30T14:25:54.892Z,1010.73
2018-09-30T14:26:54.924Z,1010.71
2018-09-30T14:28:49.348Z,1010.73
2018-09-30T14:29:49.828Z,1010.69
2018-09-30T14:31:43.286Z,1010.62
2018-09-30T14:32:42.737Z,1010.58
2018-09-30T14:34:37.195Z,1010.55
2018-09-30T14:35:37.203Z,1010.56
2018-09-30T14:37:31.630Z,1010.51
2018-09-30T14:38:31.636Z,1010.53
2018-09-30T14:40:26.100Z,1010.51
2018-09-30T14:41:26.093Z,1010.54
2018-09-30T14:43:21.048Z,1010.55
2018-09-30T14:44:21.474Z,1010.47
2018-09-30T14:46:14.942Z,1010.44
2018-09-30T14:47:15.461Z,1010.46
2018-09-30T14:49:09.420Z,1010.47
2018-09-30T14:50:09.390Z,1010.47
2018-09-30T14:52:03.843Z,1010.48
2018-09-30T14:53:03.838Z,1010.49
2018-09-30T14:54:58.800Z,1010.49
2018-09-30T14:55:58.796Z,1010.44
2018-09-30T14:57:52.726Z,1010.45
2018-09-30T14:58:52.740Z,1010.48
2018-09-30T15:00:46.177Z,1010.51
2018-09-30T15:01:46.183Z,1010.49
2018-09-30T15:03:40.598Z,1010.44
2018-09-30T15:04:40.594Z,1010.44
2018-09-30T15:06:37.552Z,1010.47
2018-09-30T15:07:36.531Z,1010.48
2018-09-30T15:09:30.987Z,1010.48
2018-09-30T15:10:31.489Z,1010.51
2018-09-30T15:12:25.432Z,1010.49
2018-09-30T15:13:24.436Z,1010.48
2018-09-30T15:15:18.919Z,1010.51
2018-09-30T15:16:18.908Z,1010.55
2018-09-30T15:18:13.373Z,1010.49
2018-09-30T15:19:13.374Z,1010.49
2018-09-30T15:21:10.246Z,1010.44
2018-09-30T15:22:09.298Z,1010.41
2018-09-30T15:24:05.292Z,1010.42
2018-09-30T15:25:05.242Z,1010.41
2018-09-30T15:27:02.723Z,1010.37
2018-09-30T15:28:01.174Z,1010.38
2018-09-30T15:29:56.134Z,1010.36
2018-09-30T15:30:56.138Z,1010.35
2018-09-30T15:32:50.585Z,1010.38
2018-09-30T15:33:50.604Z,1010.36
2018-09-30T15:35:43.529Z,1010.36
2018-09-30T15:36:43.518Z,1010.39
2018-09-30T15:38:39.478Z,1010.37
2018-09-30T15:39:38.474Z,1010.37
2018-09-30T15:41:33.879Z,1010.30
2018-09-30T15:42:34.415Z,1010.28
2018-09-30T15:44:28.848Z,1010.26
2018-09-30T15:45:28.351Z,1010.19
2018-09-30T15:47:22.327Z,1010.18
2018-09-30T15:48:22.798Z,1010.23
2018-09-30T15:50:17.891Z,1010.21
2018-09-30T15:51:17.880Z,1010.17
2018-09-30T15:53:12.328Z,1010.18
2018-09-30T15:54:12.315Z,1010.24
2018-09-30T15:56:09.266Z,1010.21
2018-09-30T15:57:06.749Z,1010.24
2018-09-30T15:59:00.229Z,1010.22
2018-09-30T16:00:00.709Z,1010.20
2018-09-30T16:01:54.619Z,1010.17
2018-09-30T16:02:55.567Z,1010.20
2018-09-30T16:04:49.582Z,1010.17
2018-09-30T16:05:49.065Z,1010.16
2018-09-30T16:07:45.525Z,1010.23
2018-09-30T16:08:45.036Z,1010.23
2018-09-30T16:10:39.501Z,1010.22
2018-09-30T16:11:39.466Z,1010.20
2018-09-30T16:13:34.925Z,1010.21
2018-09-30T16:14:33.864Z,1010.18
2018-09-30T16:16:29.831Z,1010.23
2018-09-30T16:17:28.326Z,1010.23
2018-09-30T16:19:22.785Z,1010.28
2018-09-30T16:20:22.775Z,1010.23
2018-09-30T16:22:16.216Z,1010.21
2018-09-30T16:23:16.728Z,1010.23
2018-09-30T16:25:09.688Z,1010.28
2018-09-30T16:26:10.172Z,1010.22
2018-09-30T16:28:03.100Z,1010.21
2018-09-30T16:29:03.100Z,1010.18
2018-09-30T16:30:58.067Z,1010.22
2018-09-30T16:31:57.536Z,1010.24
2018-09-30T16:33:51.998Z,1010.26
2018-09-30T16:34:52.489Z,1010.20
2018-09-30T16:36:46.898Z,1010.19
2018-09-30T16:37:46.403Z,1010.22
2018-09-30T16:39:40.850Z,1010.21
2018-09-30T16:40:39.840Z,1010.24
2018-09-30T16:42:34.799Z,1010.27
2018-09-30T16:43:34.276Z,1010.29
2018-09-30T16:45:27.782Z,1010.31
2018-09-30T16:46:27.716Z,1010.30
2018-09-30T16:48:22.136Z,1010.28
2018-09-30T16:49:22.689Z,1010.29
2018-09-30T16:51:15.682Z,1010.30
2018-09-30T16:52:15.579Z,1010.27
2018-09-30T16:54:10.564Z,1010.28
2018-09-30T16:55:10.542Z,1010.28
2018-09-30T16:57:05.489Z,1010.25
2018-09-30T16:58:04.986Z,1010.29
2018-09-30T16:59:58.906Z,1010.30
2018-09-30T17:00:59.416Z,1010.36
2018-09-30T17:02:54.398Z,1010.32
2018-09-30T17:03:53.345Z,1010.36
2018-09-30T17:05:48.300Z,1010.38
2018-09-30T17:06:48.361Z,1010.45
2018-09-30T17:08:41.732Z,1010.46
2018-09-30T17:09:41.228Z,1010.47
2018-09-30T17:11:37.738Z,1010.45
2018-09-30T17:12:37.166Z,1010.47
2018-09-30T17:14:31.650Z,1010.49
2018-09-30T17:15:31.615Z,1010.50
2018-09-30T17:17:26.078Z,1010.49
2018-09-30T17:18:26.064Z,1010.52
2018-09-30T17:20:22.528Z,1010.51
2018-09-30T17:23:17.975Z,1010.55
2018-09-30T17:24:17.970Z,1010.53
2018-09-30T17:26:12.412Z,1010.62
2018-09-30T17:27:12.414Z,1010.60
2018-09-30T17:29:08.845Z,1010.59
2018-09-30T17:30:08.307Z,1010.57
2018-09-30T17:32:04.245Z,1010.61
2018-09-30T17:33:04.243Z,1010.62
2018-09-30T17:35:01.625Z,1010.64
2018-09-30T17:35:59.637Z,1010.67
2018-09-30T17:37:54.634Z,1010.65
2018-09-30T17:38:54.614Z,1010.68
2018-09-30T17:40:48.080Z,1010.74
2018-09-30T17:41:48.107Z,1010.72
2018-09-30T17:43:45.056Z,1010.70
2018-09-30T17:44:42.539Z,1010.71
2018-09-30T17:46:36.960Z,1010.76
2018-09-30T17:47:36.950Z,1010.75
2018-09-30T17:49:32.909Z,1010.74
2018-09-30T17:50:32.933Z,1010.76
2018-09-30T17:52:27.343Z,1010.78
2018-09-30T17:53:27.834Z,1010.78
2018-09-30T17:55:21.812Z,1010.77
2018-09-30T17:56:21.767Z,1010.76
2018-09-30T17:58:17.716Z,1010.77
2018-09-30T17:59:17.712Z,1010.81
2018-09-30T18:01:12.148Z,1010.81
2018-09-30T18:02:12.154Z,1010.84
2018-09-30T18:04:09.673Z,1010.81
2018-09-30T18:05:08.675Z,1010.80